Time,TemperatureF,DewpointF,PressureIn,WindDirection,WindDirectionDegrees,WindSpeedMPH,WindSpeedGustMPH,Humidity,HourlyPrecipIn,Conditions,Clouds,dailyrainin,SoftwareType,DateUTC
2013-03-12 00:00:00,42.4,39.7,30.00,North,0,0.0,0.0,90,0.00,,,0.00,WUHU21623XXSP,2013-03-12 05:00:00,
2013-03-12 00:05:00,42.4,39.7,30.00,North,0,0.0,0.0,90,0.00,,,0.00,WUHU21623XXSP,2013-03-12 05:05:00,
2013-03-12 00:10:00,42.6,39.9,30.00,North,0,0.0,0.0,90,0.00,,,0.00,WUHU21623XXSP,2013-03-12 05:10:00,
2013-03-12 00:15:00,42.6,40.2,30.00,North,0,0.0,0.0,91,0.00,,,0.00,WUHU21623XXSP,2013-03-12 05:15:00,
2013-03-12 00:20:00,42.6,40.2,30.00,North,0,0.0,0.0,91,0.00,,,0.00,WUHU21623XXSP,2013-03-12 05:20:00,
2013-03-12 00:25:00,42.8,40.2,30.00,North,0,0.0,0.0,91,0.00,,,0.00,WUHU21623XXSP,2013-03-12 05:25:00,
2013-03-12 00:30:00,43.0,40.8,30.00,North,0,0.0,0.0,92,0.00,,,0.00,WUHU21623XXSP,2013-03-12 05:30:00,
2013-03-12 00:35:00,43.3,41.2,30.00,North,0,0.0,0.0,92,0.00,,,0.00,WUHU21623XXSP,2013-03-12 05:35:00,
2013-03-12 00:40:00,43.5,41.4,30.00,North,0,0.0,0.0,92,0.00,,,0.00,WUHU21623XXSP,2013-03-12 05:40:00,
2013-03-12 00:45:00,44.1,41.4,30.00,North,0,0.0,0.0,90,0.00,,,0.00,WUHU21623XXSP,2013-03-12 05:45:00,
2013-03-12 00:50:00,44.4,41.7,30.00,North,0,0.0,0.0,90,0.00,,,0.00,WUHU21623XXSP,2013-03-12 05:50:00,
2013-03-12 00:55:00,44.6,41.4,30.00,North,0,0.0,0.0,89,0.00,,,0.00,WUHU21623XXSP,2013-03-12 05:55:00,
2013-03-12 01:00:00,44.8,41.5,30.00,North,0,0.0,0.0,88,0.00,,,0.00,WUHU21623XXSP,2013-03-12 06:00:00,
2013-03-12 01:05:00,45.0,41.3,30.00,North,0,0.0,0.0,87,0.00,,,0.00,WUHU21623XXSP,2013-03-12 06:05:00,
2013-03-12 01:10:00,45.1,41.5,30.00,North,0,0.0,0.0,87,0.00,,,0.00,WUHU21623XXSP,2013-03-12 06:10:00,
2013-03-12 01:15:00,45.1,41.2,30.01,North,0,0.0,0.0,86,0.00,,,0.00,WUHU21623XXSP,2013-03-12 06:15:00,
2013-03-12 01:20:00,45.1,40.9,30.01,North,0,0.0,0.0,85,0.00,,,0.00,WUHU21623XXSP,2013-03-12 06:20:00,
2013-03-12 01:25:00,45.1,40.9,30.01,North,0,0.0,0.0,85,0.00,,,0.00,WUHU21623XXSP,2013-03-12 06:25:00,
2013-03-12 01:30:00,45.1,40.9,30.01,North,0,0.0,0.0,85,0.00,,,0.00,WUHU21623XXSP,2013-03-12 06:30:00,
2013-03-12 01:35:00,45.1,40.6,30.01,North,0,0.0,0.0,84,0.00,,,0.00,WUHU21623XXSP,2013-03-12 06:35:00,
2013-03-12 01:40:00,45.1,40.6,30.01,North,0,0.0,0.0,84,0.00,,,0.00,WUHU21623XXSP,2013-03-12 06:40:00,
2013-03-12 01:45:00,45.1,40.6,30.01,North,0,0.0,0.0,84,0.00,,,0.00,WUHU21623XXSP,2013-03-12 06:45:00,
2013-03-12 01:50:00,45.1,40.6,30.01,North,0,0.0,0.0,84,0.00,,,0.00,WUHU21623XXSP,2013-03-12 06:50:00,
2013-03-12 01:55:00,45.1,40.6,30.02,North,0,0.0,0.0,84,0.00,,,0.00,WUHU21623XXSP,2013-03-12 06:55:00,
2013-03-12 02:00:00,45.0,40.4,30.02,North,0,0.0,0.0,84,0.00,,,0.00,WUHU21623XXSP,2013-03-12 07:00:00,
2013-03-12 02:05:00,44.8,40.2,30.02,North,0,0.0,0.0,84,0.00,,,0.00,WUHU21623XXSP,2013-03-12 07:05:00,
2013-03-12 02:10:00,44.8,40.2,30.02,North,0,0.0,0.0,84,0.00,,,0.00,WUHU21623XXSP,2013-03-12 07:10:00,
2013-03-12 02:15:00,44.6,40.1,30.02,North,0,0.0,0.0,84,0.00,,,0.00,WUHU21623XXSP,2013-03-12 07:15:00,
2013-03-12 02:20:00,44.4,39.9,30.02,North,0,0.0,0.0,84,0.00,,,0.00,WUHU21623XXSP,2013-03-12 07:20:00,
2013-03-12 02:25:00,44.4,39.6,30.02,North,0,0.0,0.0,84,0.00,,,0.00,WUHU21623XXSP,2013-03-12 07:25:00,
2013-03-12 02:30:00,44.4,39.6,30.02,North,0,0.0,0.0,83,0.00,,,0.00,WUHU21623XXSP,2013-03-12 07:30:00,
2013-03-12 02:35:00,44.4,39.6,30.02,North,0,0.0,0.0,83,0.00,,,0.00,WUHU21623XXSP,2013-03-12 07:35:00,
2013-03-12 02:40:00,44.2,39.4,30.01,North,0,0.0,0.0,83,0.00,,,0.00,WUHU21623XXSP,2013-03-12 07:40:00,
2013-03-12 02:45:00,44.2,39.7,30.01,North,0,0.0,0.0,84,0.00,,,0.00,WUHU21623XXSP,2013-03-12 07:45:00,
2013-03-12 02:50:00,44.1,39.5,30.01,North,0,0.0,0.0,84,0.00,,,0.00,WUHU21623XXSP,2013-03-12 07:50:00,
2013-03-12 02:55:00,43.9,39.3,30.02,North,0,0.0,0.0,84,0.00,,,0.00,WUHU21623XXSP,2013-03-12 07:55:00,
2013-03-12 03:00:00,43.9,39.3,30.01,North,0,0.0,0.0,84,0.00,,,0.00,WUHU21623XXSP,2013-03-12 08:00:00,
2013-03-12 03:05:00,43.7,39.2,30.01,North,0,0.0,0.0,84,0.00,,,0.00,WUHU21623XXSP,2013-03-12 08:05:00,
2013-03-12 03:10:00,43.5,39.0,30.01,North,0,0.0,0.0,84,0.00,,,0.00,WUHU21623XXSP,2013-03-12 08:10:00,
2013-03-12 03:15:00,43.5,39.0,30.01,North,0,0.0,0.0,84,0.00,,,0.00,WUHU21623XXSP,2013-03-12 08:15:00,
2013-03-12 03:20:00,43.3,38.8,30.01,North,0,0.0,0.0,84,0.00,,,0.00,WUHU21623XXSP,2013-03-12 08:20:00,
2013-03-12 03:25:00,43.3,38.8,30.01,North,0,0.0,0.0,84,0.00,,,0.00,WUHU21623XXSP,2013-03-12 08:25:00,
2013-03-12 03:30:00,43.2,38.6,30.02,North,0,0.0,0.0,84,0.00,,,0.00,WUHU21623XXSP,2013-03-12 08:30:00,
2013-03-12 03:35:00,43.0,38.6,30.01,North,0,0.0,0.0,84,0.00,,,0.00,WUHU21623XXSP,2013-03-12 08:35:00,
2013-03-12 03:40:00,43.0,38.4,30.02,North,0,0.0,0.0,84,0.00,,,0.00,WUHU21623XXSP,2013-03-12 08:40:00,
2013-03-12 03:45:00,43.0,38.4,30.02,North,0,0.0,0.0,84,0.00,,,0.00,WUHU21623XXSP,2013-03-12 08:45:00,
2013-03-12 03:50:00,43.0,38.4,30.02,North,0,0.0,0.0,84,0.00,,,0.00,WUHU21623XXSP,2013-03-12 08:50:00,
2013-03-12 03:55:00,43.0,38.4,30.02,North,0,0.0,0.0,84,0.00,,,0.00,WUHU21623XXSP,2013-03-12 08:55:00,
2013-03-12 04:00:00,43.0,38.4,30.02,North,0,0.0,0.0,84,0.00,,,0.00,WUHU21623XXSP,2013-03-12 09:00:00,
2013-03-12 04:05:00,43.0,38.4,30.02,North,0,0.0,0.0,84,0.00,,,0.00,WUHU21623XXSP,2013-03-12 09:05:00,
2013-03-12 04:11:00,43.0,38.1,30.02,North,0,0.0,0.0,83,0.00,,,0.00,WUHU21623XXSP,2013-03-12 09:11:00,
2013-03-12 04:16:00,43.3,38.5,30.03,North,0,0.0,0.0,83,0.00,,,0.00,WUHU21623XXSP,2013-03-12 09:16:00,
2013-03-12 04:21:00,43.3,38.2,30.03,North,0,0.0,0.0,82,0.00,,,0.00,WUHU21623XXSP,2013-03-12 09:21:00,
2013-03-12 04:26:00,43.3,38.2,30.03,North,0,0.0,0.0,82,0.00,,,0.00,WUHU21623XXSP,2013-03-12 09:26:00,
2013-03-12 04:31:00,43.3,38.2,30.03,North,0,0.0,0.0,82,0.00,,,0.00,WUHU21623XXSP,2013-03-12 09:31:00,
2013-03-12 04:36:00,43.2,38.0,30.03,North,0,0.0,0.0,82,0.00,,,0.00,WUHU21623XXSP,2013-03-12 09:36:00,
2013-03-12 04:41:00,43.2,38.0,30.03,North,0,0.0,0.0,82,0.00,,,0.00,WUHU21623XXSP,2013-03-12 09:41:00,
2013-03-12 04:46:00,43.0,38.0,30.03,North,0,0.0,0.0,82,0.00,,,0.00,WUHU21623XXSP,2013-03-12 09:46:00,
2013-03-12 04:51:00,43.0,37.5,30.04,North,0,0.0,0.0,81,0.00,,,0.00,WUHU21623XXSP,2013-03-12 09:51:00,
2013-03-12 04:56:00,43.0,37.5,30.04,North,0,0.0,0.0,81,0.00,,,0.00,WUHU21623XXSP,2013-03-12 09:56:00,
2013-03-12 05:01:00,43.0,37.5,30.04,North,0,0.0,0.0,81,0.00,,,0.00,WUHU21623XXSP,2013-03-12 10:01:00,
2013-03-12 05:06:00,43.0,37.5,30.04,North,0,0.0,0.0,81,0.00,,,0.00,WUHU21623XXSP,2013-03-12 10:06:00,
2013-03-12 05:11:00,43.0,37.2,30.05,North,0,0.0,0.0,80,0.00,,,0.00,WUHU21623XXSP,2013-03-12 10:11:00,
2013-03-12 05:16:00,43.0,37.2,30.04,North,0,0.0,0.0,80,0.00,,,0.00,WUHU21623XXSP,2013-03-12 10:16:00,
2013-03-12 05:21:00,43.0,37.2,30.05,North,0,0.0,0.0,80,0.00,,,0.00,WUHU21623XXSP,2013-03-12 10:21:00,
2013-03-12 05:26:00,42.6,36.9,30.05,North,0,0.0,0.0,80,0.00,,,0.00,WUHU21623XXSP,2013-03-12 10:26:00,
2013-03-12 05:31:00,42.6,37.2,30.05,North,0,0.0,0.0,81,0.00,,,0.00,WUHU21623XXSP,2013-03-12 10:31:00,
2013-03-12 05:36:00,42.6,37.2,30.05,North,0,0.0,0.0,81,0.00,,,0.00,WUHU21623XXSP,2013-03-12 10:36:00,
2013-03-12 05:41:00,42.4,37.0,30.05,North,0,0.0,0.0,81,0.00,,,0.00,WUHU21623XXSP,2013-03-12 10:41:00,
2013-03-12 05:46:00,42.4,37.0,30.05,North,0,0.0,0.0,81,0.00,,,0.00,WUHU21623XXSP,2013-03-12 10:46:00,
2013-03-12 05:51:00,42.1,36.6,30.05,North,0,0.0,0.0,81,0.00,,,0.00,WUHU21623XXSP,2013-03-12 10:51:00,
2013-03-12 05:56:00,41.9,36.6,30.06,North,0,0.0,0.0,81,0.00,,,0.00,WUHU21623XXSP,2013-03-12 10:56:00,
2013-03-12 06:01:00,41.9,36.8,30.06,North,0,0.0,0.0,82,0.00,,,0.00,WUHU21623XXSP,2013-03-12 11:01:00,
2013-03-12 06:06:00,41.7,36.6,30.06,North,0,0.0,0.0,82,0.00,,,0.00,WUHU21623XXSP,2013-03-12 11:06:00,
2013-03-12 06:11:00,41.5,36.4,30.06,North,0,0.0,0.0,82,0.00,,,0.00,WUHU21623XXSP,2013-03-12 11:11:00,
2013-03-12 06:16:00,41.5,36.4,30.06,North,0,0.0,0.0,82,0.00,,,0.00,WUHU21623XXSP,2013-03-12 11:16:00,
2013-03-12 06:21:00,41.4,36.2,30.06,North,0,0.0,0.0,82,0.00,,,0.00,WUHU21623XXSP,2013-03-12 11:21:00,
2013-03-12 06:26:00,41.2,36.0,30.06,North,0,0.0,0.0,82,0.00,,,0.00,WUHU21623XXSP,2013-03-12 11:26:00,
2013-03-12 06:31:00,41.0,36.2,30.07,North,0,0.0,0.0,83,0.00,,,0.00,WUHU21623XXSP,2013-03-12 11:31:00,
2013-03-12 06:36:00,40.8,36.2,30.07,North,0,0.0,0.0,83,0.00,,,0.00,WUHU21623XXSP,2013-03-12 11:36:00,
2013-03-12 06:41:00,40.8,36.0,30.07,North,0,0.0,0.0,83,0.00,,,0.00,WUHU21623XXSP,2013-03-12 11:41:00,
2013-03-12 06:46:00,40.8,36.0,30.07,North,0,0.0,0.0,83,0.00,,,0.00,WUHU21623XXSP,2013-03-12 11:46:00,
2013-03-12 06:51:00,40.6,35.8,30.07,North,0,0.0,0.0,83,0.00,,,0.00,WUHU21623XXSP,2013-03-12 11:51:00,
2013-03-12 06:56:00,40.3,35.5,30.08,North,0,0.0,0.0,83,0.00,,,0.00,WUHU21623XXSP,2013-03-12 11:56:00,
2013-03-12 07:01:00,40.3,35.5,30.08,North,0,0.0,0.0,83,0.00,,,0.00,WUHU21623XXSP,2013-03-12 12:01:00,
2013-03-12 07:07:00,39.9,35.1,30.08,North,0,0.0,0.0,83,0.00,,,0.00,WUHU21623XXSP,2013-03-12 12:07:00,
2013-03-12 07:12:00,39.9,35.4,30.08,North,0,0.0,0.0,84,0.00,,,0.00,WUHU21623XXSP,2013-03-12 12:12:00,
2013-03-12 07:17:00,39.7,35.3,30.08,North,0,0.0,0.0,84,0.00,,,0.00,WUHU21623XXSP,2013-03-12 12:17:00,
2013-03-12 07:22:00,39.7,35.3,30.08,North,0,0.0,0.0,84,0.00,,,0.00,WUHU21623XXSP,2013-03-12 12:22:00,
2013-03-12 07:27:00,39.7,35.3,30.08,North,0,0.0,0.0,84,0.00,,,0.00,WUHU21623XXSP,2013-03-12 12:27:00,
2013-03-12 07:32:00,39.6,35.1,30.09,North,0,0.0,0.0,84,0.00,,,0.00,WUHU21623XXSP,2013-03-12 12:32:00,
2013-03-12 07:37:00,39.4,35.2,30.09,North,0,0.0,0.0,85,0.00,,,0.00,WUHU21623XXSP,2013-03-12 12:37:00,
2013-03-12 07:38:00,39.4,35.2,30.09,North,0,0.0,0.0,85,0.00,,,0.00,WUHU21623XXSP,2013-03-12 12:38:00,
2013-03-12 07:49:00,39.6,35.4,30.10,North,0,0.0,0.0,85,0.00,,,0.00,WUHU21623XXSP,2013-03-12 12:49:00,
2013-03-12 07:54:00,39.6,35.4,30.10,North,0,0.0,0.0,85,0.00,,,0.00,WUHU21623XXSP,2013-03-12 12:54:00,
2013-03-12 07:59:00,39.6,35.4,30.11,North,0,0.0,0.0,85,0.00,,,0.00,WUHU21623XXSP,2013-03-12 12:59:00,
2013-03-12 08:04:00,39.9,35.7,30.11,North,0,0.0,0.0,85,0.00,,,0.00,WUHU21623XXSP,2013-03-12 13:04:00,
2013-03-12 08:09:00,40.1,35.7,30.11,North,0,0.0,0.0,85,0.00,,,0.00,WUHU21623XXSP,2013-03-12 13:09:00,
2013-03-12 08:14:00,40.5,36.1,30.11,North,0,0.0,0.0,85,0.00,,,0.00,WUHU21623XXSP,2013-03-12 13:14:00,
2013-03-12 08:19:00,41.0,36.3,30.11,North,0,0.0,0.0,84,0.00,,,0.00,WUHU21623XXSP,2013-03-12 13:19:00,
2013-03-12 08:24:00,41.4,36.8,30.11,North,0,0.0,0.0,84,0.00,,,0.00,WUHU21623XXSP,2013-03-12 13:24:00,
2013-03-12 08:29:00,41.5,36.7,30.12,North,0,0.0,0.0,83,0.00,,,0.00,WUHU21623XXSP,2013-03-12 13:29:00,
2013-03-12 08:34:00,42.1,36.9,30.12,North,0,0.0,0.0,82,0.00,,,0.00,WUHU21623XXSP,2013-03-12 13:34:00,
2013-03-12 08:39:00,42.4,37.0,30.12,North,0,0.0,0.0,81,0.00,,,0.00,WUHU21623XXSP,2013-03-12 13:39:00,
2013-03-12 08:44:00,42.8,37.2,30.13,North,0,0.0,0.0,81,0.00,,,0.00,WUHU21623XXSP,2013-03-12 13:44:00,
2013-03-12 08:49:00,43.2,37.2,30.13,North,0,0.0,0.0,80,0.00,,,0.00,WUHU21623XXSP,2013-03-12 13:49:00,
2013-03-12 08:54:00,43.3,36.9,30.13,North,0,0.0,0.0,78,0.00,,,0.00,WUHU21623XXSP,2013-03-12 13:54:00,
2013-03-12 08:59:00,43.5,37.1,30.13,North,0,0.0,0.0,78,0.00,,,0.00,WUHU21623XXSP,2013-03-12 13:59:00,
2013-03-12 09:04:00,43.9,36.8,30.13,North,0,0.0,0.0,76,0.00,,,0.00,WUHU21623XXSP,2013-03-12 14:04:00,
2013-03-12 09:09:00,44.2,37.0,30.13,North,0,0.0,0.0,76,0.00,,,0.00,WUHU21623XXSP,2013-03-12 14:09:00,
2013-03-12 09:14:00,44.4,37.3,30.13,North,0,0.0,0.0,76,0.00,,,0.00,WUHU21623XXSP,2013-03-12 14:14:00,
2013-03-12 09:19:00,44.8,37.1,30.13,North,0,0.0,0.0,75,0.00,,,0.00,WUHU21623XXSP,2013-03-12 14:19:00,
2013-03-12 09:24:00,45.1,37.5,30.14,North,0,0.0,0.0,74,0.00,,,0.00,WUHU21623XXSP,2013-03-12 14:24:00,
2013-03-12 09:29:00,45.7,37.5,30.13,North,0,0.0,0.0,73,0.00,,,0.00,WUHU21623XXSP,2013-03-12 14:29:00,
2013-03-12 09:34:00,46.2,37.2,30.13,North,0,0.0,0.0,71,0.00,,,0.00,WUHU21623XXSP,2013-03-12 14:34:00,
2013-03-12 09:39:00,46.4,37.4,30.14,North,0,0.0,0.0,70,0.00,,,0.00,WUHU21623XXSP,2013-03-12 14:39:00,
2013-03-12 09:44:00,46.8,37.1,30.13,North,0,0.0,0.0,69,0.00,,,0.00,WUHU21623XXSP,2013-03-12 14:44:00,
2013-03-12 09:49:00,46.9,37.3,30.14,North,0,0.0,0.0,69,0.00,,,0.00,WUHU21623XXSP,2013-03-12 14:49:00,
2013-03-12 09:54:00,47.3,37.6,30.14,North,0,0.0,0.0,69,0.00,,,0.00,WUHU21623XXSP,2013-03-12 14:54:00,
2013-03-12 09:59:00,47.7,38.0,30.14,North,0,0.0,0.0,69,0.00,,,0.00,WUHU21623XXSP,2013-03-12 14:59:00,
2013-03-12 10:04:00,48.0,37.5,30.15,North,0,0.0,0.0,67,0.00,,,0.00,WUHU21623XXSP,2013-03-12 15:04:00,
2013-03-12 10:09:00,48.6,38.0,30.14,North,0,0.0,0.0,67,0.00,,,0.00,WUHU21623XXSP,2013-03-12 15:09:00,
2013-03-12 10:14:00,48.7,37.8,30.14,North,0,0.0,0.0,66,0.00,,,0.00,WUHU21623XXSP,2013-03-12 15:14:00,
2013-03-12 10:19:00,49.1,37.6,30.15,North,0,0.0,0.0,66,0.00,,,0.00,WUHU21623XXSP,2013-03-12 15:19:00,
2013-03-12 10:24:00,49.6,37.9,30.15,North,0,0.0,0.0,64,0.00,,,0.00,WUHU21623XXSP,2013-03-12 15:24:00,
2013-03-12 10:29:00,50.0,37.9,30.15,North,0,0.0,0.0,63,0.00,,,0.00,WUHU21623XXSP,2013-03-12 15:29:00,
2013-03-12 10:34:00,50.7,37.7,30.14,North,0,0.0,0.0,61,0.00,,,0.00,WUHU21623XXSP,2013-03-12 15:34:00,
2013-03-12 10:39:00,51.1,37.9,30.14,North,0,0.0,0.0,60,0.00,,,0.00,WUHU21623XXSP,2013-03-12 15:39:00,
2013-03-12 10:44:00,51.6,37.7,30.14,North,0,0.0,0.0,59,0.00,,,0.00,WUHU21623XXSP,2013-03-12 15:44:00,
2013-03-12 10:49:00,52.2,37.7,30.14,North,0,0.0,0.0,58,0.00,,,0.00,WUHU21623XXSP,2013-03-12 15:49:00,
2013-03-12 10:54:00,52.3,37.9,30.14,North,0,0.0,0.0,58,0.00,,,0.00,WUHU21623XXSP,2013-03-12 15:54:00,
2013-03-12 10:59:00,52.5,37.6,30.14,North,0,0.0,0.0,57,0.00,,,0.00,WUHU21623XXSP,2013-03-12 15:59:00,
2013-03-12 11:04:00,52.9,38.0,30.15,North,0,0.0,0.0,57,0.00,,,0.00,WUHU21623XXSP,2013-03-12 16:04:00,
2013-03-12 11:09:00,53.1,38.2,30.14,North,0,0.0,0.0,57,0.00,,,0.00,WUHU21623XXSP,2013-03-12 16:09:00,
2013-03-12 11:14:00,53.2,38.3,30.14,North,0,0.0,0.0,56,0.00,,,0.00,WUHU21623XXSP,2013-03-12 16:14:00,
2013-03-12 11:19:00,53.8,37.9,30.14,North,0,0.0,0.0,55,0.00,,,0.00,WUHU21623XXSP,2013-03-12 16:19:00,
2013-03-12 11:24:00,54.0,38.1,30.14,North,0,0.0,0.0,55,0.00,,,0.00,WUHU21623XXSP,2013-03-12 16:24:00,
2013-03-12 11:29:00,54.3,38.7,30.14,North,0,0.0,0.0,55,0.00,,,0.00,WUHU21623XXSP,2013-03-12 16:29:00,
2013-03-12 11:34:00,54.7,38.7,30.14,North,0,0.0,0.0,55,0.00,,,0.00,WUHU21623XXSP,2013-03-12 16:34:00,
2013-03-12 11:39:00,55.0,38.9,30.14,North,0,0.0,0.0,54,0.00,,,0.00,WUHU21623XXSP,2013-03-12 16:39:00,
2013-03-12 11:44:00,55.2,38.8,30.14,North,0,0.0,0.0,54,0.00,,,0.00,WUHU21623XXSP,2013-03-12 16:44:00,
2013-03-12 11:49:00,55.8,38.8,30.14,North,0,0.0,0.0,53,0.00,,,0.00,WUHU21623XXSP,2013-03-12 16:49:00,
2013-03-12 11:54:00,55.9,39.0,30.14,North,0,0.0,0.0,53,0.00,,,0.00,WUHU21623XXSP,2013-03-12 16:54:00,
2013-03-12 11:59:00,56.3,38.4,30.14,North,0,0.0,0.0,51,0.00,,,0.00,WUHU21623XXSP,2013-03-12 16:59:00,
2013-03-12 12:04:00,56.5,38.6,30.14,North,0,0.0,0.0,51,0.00,,,0.00,WUHU21623XXSP,2013-03-12 17:04:00,
2013-03-12 12:09:00,56.5,38.1,30.14,North,0,0.0,0.0,50,0.00,,,0.00,WUHU21623XXSP,2013-03-12 17:09:00,
2013-03-12 12:14:00,56.8,38.9,30.13,North,0,0.0,0.0,51,0.00,,,0.00,WUHU21623XXSP,2013-03-12 17:14:00,
2013-03-12 12:19:00,57.0,38.7,30.14,North,0,0.0,0.0,50,0.00,,,0.00,WUHU21623XXSP,2013-03-12 17:19:00,
2013-03-12 12:24:00,57.6,39.2,30.13,North,0,0.0,0.0,50,0.00,,,0.00,WUHU21623XXSP,2013-03-12 17:24:00,
2013-03-12 12:29:00,57.9,39.5,30.13,North,0,0.0,0.0,50,0.00,,,0.00,WUHU21623XXSP,2013-03-12 17:29:00,
2013-03-12 12:34:00,58.8,38.6,30.13,North,0,0.0,0.0,47,0.00,,,0.00,WUHU21623XXSP,2013-03-12 17:34:00,
2013-03-12 12:39:00,59.0,38.7,30.13,North,0,0.0,0.0,47,0.00,,,0.00,WUHU21623XXSP,2013-03-12 17:39:00,
2013-03-12 12:44:00,59.5,38.9,30.12,North,0,0.0,0.0,47,0.00,,,0.00,WUHU21623XXSP,2013-03-12 17:44:00,
2013-03-12 12:49:00,59.7,39.4,30.12,North,0,0.0,0.0,47,0.00,,,0.00,WUHU21623XXSP,2013-03-12 17:49:00,
2013-03-12 12:54:00,60.1,39.7,30.12,North,0,0.0,0.0,47,0.00,,,0.00,WUHU21623XXSP,2013-03-12 17:54:00,
2013-03-12 12:59:00,60.4,40.0,30.12,North,0,0.0,0.0,46,0.00,,,0.00,WUHU21623XXSP,2013-03-12 17:59:00,
2013-03-12 13:04:00,60.6,39.6,30.12,North,0,0.0,0.0,46,0.00,,,0.00,WUHU21623XXSP,2013-03-12 18:04:00,
2013-03-12 13:09:00,61.0,39.9,30.12,North,0,0.0,0.0,46,0.00,,,0.00,WUHU21623XXSP,2013-03-12 18:09:00,
2013-03-12 13:14:00,61.5,39.8,30.11,North,0,0.0,0.0,45,0.00,,,0.00,WUHU21623XXSP,2013-03-12 18:14:00,
2013-03-12 13:19:00,61.9,38.4,30.11,North,0,0.0,0.0,42,0.00,,,0.00,WUHU21623XXSP,2013-03-12 18:19:00,
2013-03-12 13:24:00,61.9,39.0,30.11,North,0,0.0,0.0,43,0.00,,,0.00,WUHU21623XXSP,2013-03-12 18:24:00,
2013-03-12 13:29:00,62.2,38.8,30.11,North,0,0.0,0.0,42,0.00,,,0.00,WUHU21623XXSP,2013-03-12 18:29:00,
2013-03-12 13:34:00,62.4,38.9,30.11,North,0,0.0,0.0,42,0.00,,,0.00,WUHU21623XXSP,2013-03-12 18:34:00,
2013-03-12 13:39:00,62.8,39.3,30.11,North,0,0.0,0.0,42,0.00,,,0.00,WUHU21623XXSP,2013-03-12 18:39:00,
2013-03-12 13:44:00,63.0,39.4,30.10,North,0,0.0,0.0,42,0.00,,,0.00,WUHU21623XXSP,2013-03-12 18:44:00,
2013-03-12 13:49:00,63.3,39.7,30.10,North,0,0.0,0.0,42,0.00,,,0.00,WUHU21623XXSP,2013-03-12 18:49:00,
2013-03-12 13:55:00,63.5,39.3,30.10,North,0,0.0,0.0,41,0.00,,,0.00,WUHU21623XXSP,2013-03-12 18:55:00,
2013-03-12 13:59:00,63.7,38.9,30.10,North,0,0.0,0.0,40,0.00,,,0.00,WUHU21623XXSP,2013-03-12 18:59:00,
2013-03-12 14:04:00,64.0,39.5,30.10,North,0,0.0,0.0,41,0.00,,,0.00,WUHU21623XXSP,2013-03-12 19:04:00,
2013-03-12 14:09:00,64.0,39.8,30.10,North,0,0.0,0.0,40,0.00,,,0.00,WUHU21623XXSP,2013-03-12 19:09:00,
2013-03-12 14:14:00,63.9,39.1,30.10,North,0,0.0,0.0,40,0.00,,,0.00,WUHU21623XXSP,2013-03-12 19:14:00,
2013-03-12 14:19:00,64.0,39.2,30.10,North,0,0.0,0.0,40,0.00,,,0.00,WUHU21623XXSP,2013-03-12 19:19:00,
2013-03-12 14:24:00,64.0,39.8,30.10,North,0,0.0,0.0,41,0.00,,,0.00,WUHU21623XXSP,2013-03-12 19:24:00,
2013-03-12 14:29:00,64.6,39.7,30.10,North,0,0.0,0.0,40,0.00,,,0.00,WUHU21623XXSP,2013-03-12 19:29:00,
2013-03-12 14:34:00,64.8,38.4,30.09,North,0,0.0,0.0,38,0.00,,,0.00,WUHU21623XXSP,2013-03-12 19:34:00,
2013-03-12 14:40:00,64.9,39.3,30.09,North,0,0.0,0.0,39,0.00,,,0.00,WUHU21623XXSP,2013-03-12 19:40:00,
2013-03-12 14:45:00,65.1,39.5,30.09,North,0,0.0,0.0,39,0.00,,,0.00,WUHU21623XXSP,2013-03-12 19:45:00,
2013-03-12 14:50:00,65.5,39.1,30.09,North,0,0.0,0.0,38,0.00,,,0.00,WUHU21623XXSP,2013-03-12 19:50:00,
2013-03-12 14:55:00,65.8,39.4,30.08,North,0,0.0,0.0,38,0.00,,,0.00,WUHU21623XXSP,2013-03-12 19:55:00,
2013-03-12 15:00:00,65.8,40.1,30.08,North,0,0.0,0.0,39,0.00,,,0.00,WUHU21623XXSP,2013-03-12 20:00:00,
2013-03-12 15:05:00,66.0,40.3,30.09,North,0,0.0,0.0,37,0.00,,,0.00,WUHU21623XXSP,2013-03-12 20:05:00,
2013-03-12 15:10:00,66.2,39.7,30.08,North,0,0.0,0.0,38,0.00,,,0.00,WUHU21623XXSP,2013-03-12 20:10:00,
2013-03-12 15:15:00,66.2,39.0,30.08,North,0,0.0,0.0,37,0.00,,,0.00,WUHU21623XXSP,2013-03-12 20:15:00,
2013-03-12 15:20:00,66.0,39.6,30.08,North,0,0.0,0.0,38,0.00,,,0.00,WUHU21623XXSP,2013-03-12 20:20:00,
2013-03-12 15:25:00,66.2,40.5,30.08,North,0,0.0,0.0,39,0.00,,,0.00,WUHU21623XXSP,2013-03-12 20:25:00,
2013-03-12 15:30:00,66.4,39.9,30.09,North,0,0.0,0.0,37,0.00,,,0.00,WUHU21623XXSP,2013-03-12 20:30:00,
2013-03-12 15:35:00,66.4,39.9,30.09,North,0,0.0,0.0,38,0.00,,,0.00,WUHU21623XXSP,2013-03-12 20:35:00,
2013-03-12 15:40:00,66.6,40.0,30.08,North,0,0.0,0.0,38,0.00,,,0.00,WUHU21623XXSP,2013-03-12 20:40:00,
2013-03-12 15:45:00,66.7,40.2,30.08,North,0,0.0,0.0,38,0.00,,,0.00,WUHU21623XXSP,2013-03-12 20:45:00,
2013-03-12 15:50:00,66.7,40.2,30.08,North,0,0.0,0.0,38,0.00,,,0.00,WUHU21623XXSP,2013-03-12 20:50:00,
2013-03-12 15:55:00,66.7,40.2,30.08,North,0,0.0,0.0,38,0.00,,,0.00,WUHU21623XXSP,2013-03-12 20:55:00,
2013-03-12 16:00:00,66.9,39.6,30.08,North,0,0.0,0.0,37,0.00,,,0.00,WUHU21623XXSP,2013-03-12 21:00:00,
2013-03-12 16:05:00,66.7,39.6,30.08,North,0,0.0,0.0,37,0.00,,,0.00,WUHU21623XXSP,2013-03-12 21:05:00,
2013-03-12 16:10:00,66.9,40.4,30.08,North,0,0.0,0.0,38,0.00,,,0.00,WUHU21623XXSP,2013-03-12 21:10:00,
2013-03-12 16:15:00,66.9,39.6,30.08,North,0,0.0,0.0,37,0.00,,,0.00,WUHU21623XXSP,2013-03-12 21:15:00,
2013-03-12 16:20:00,66.9,40.4,30.08,North,0,0.0,0.0,38,0.00,,,0.00,WUHU21623XXSP,2013-03-12 21:20:00,
2013-03-12 16:25:00,67.1,40.5,30.08,North,0,0.0,0.0,38,0.00,,,0.00,WUHU21623XXSP,2013-03-12 21:25:00,
2013-03-12 16:30:00,66.9,40.4,30.08,North,0,0.0,0.0,38,0.00,,,0.00,WUHU21623XXSP,2013-03-12 21:30:00,
2013-03-12 16:35:00,67.1,40.5,30.08,North,0,0.0,0.0,38,0.00,,,0.00,WUHU21623XXSP,2013-03-12 21:35:00,
2013-03-12 16:40:00,67.3,40.7,30.08,North,0,0.0,0.0,38,0.00,,,0.00,WUHU21623XXSP,2013-03-12 21:40:00,
2013-03-12 16:45:00,67.3,40.7,30.08,North,0,0.0,0.0,38,0.00,,,0.00,WUHU21623XXSP,2013-03-12 21:45:00,
2013-03-12 16:50:00,67.1,40.5,30.08,North,0,0.0,0.0,38,0.00,,,0.00,WUHU21623XXSP,2013-03-12 21:50:00,
2013-03-12 16:55:00,67.1,41.3,30.08,North,0,0.0,0.0,39,0.00,,,0.00,WUHU21623XXSP,2013-03-12 21:55:00,
2013-03-12 17:00:00,67.3,40.7,30.09,North,0,0.0,0.0,38,0.00,,,0.00,WUHU21623XXSP,2013-03-12 22:00:00,
2013-03-12 17:05:00,67.3,40.7,30.08,North,0,0.0,0.0,38,0.00,,,0.00,WUHU21623XXSP,2013-03-12 22:05:00,
2013-03-12 17:10:00,67.6,41.0,30.08,North,0,0.0,0.0,38,0.00,,,0.00,WUHU21623XXSP,2013-03-12 22:10:00,
2013-03-12 17:15:00,67.3,40.7,30.08,North,0,0.0,0.0,38,0.00,,,0.00,WUHU21623XXSP,2013-03-12 22:15:00,
2013-03-12 17:20:00,67.3,40.7,30.08,North,0,0.0,0.0,38,0.00,,,0.00,WUHU21623XXSP,2013-03-12 22:20:00,
2013-03-12 17:25:00,66.9,40.4,30.09,North,0,0.0,0.0,38,0.00,,,0.00,WUHU21623XXSP,2013-03-12 22:25:00,
2013-03-12 17:30:00,66.7,40.2,30.09,North,0,0.0,0.0,38,0.00,,,0.00,WUHU21623XXSP,2013-03-12 22:30:00,
2013-03-12 17:35:00,66.7,40.2,30.09,North,0,0.0,0.0,38,0.00,,,0.00,WUHU21623XXSP,2013-03-12 22:35:00,
2013-03-12 17:40:00,66.6,40.0,30.09,North,0,0.0,0.0,38,0.00,,,0.00,WUHU21623XXSP,2013-03-12 22:40:00,
2013-03-12 17:45:00,66.6,40.0,30.09,North,0,0.0,0.0,38,0.00,,,0.00,WUHU21623XXSP,2013-03-12 22:45:00,
2013-03-12 17:50:00,66.6,40.0,30.09,North,0,0.0,0.0,38,0.00,,,0.00,WUHU21623XXSP,2013-03-12 22:50:00,
2013-03-12 17:55:00,66.2,39.7,30.10,North,0,0.0,0.0,38,0.00,,,0.00,WUHU21623XXSP,2013-03-12 22:55:00,
2013-03-12 18:00:00,66.0,39.6,30.10,North,0,0.0,0.0,38,0.00,,,0.00,WUHU21623XXSP,2013-03-12 23:00:00,
2013-03-12 18:05:00,65.8,40.1,30.10,North,0,0.0,0.0,39,0.00,,,0.00,WUHU21623XXSP,2013-03-12 23:05:00,
2013-03-12 18:10:00,65.5,39.8,30.10,North,0,0.0,0.0,39,0.00,,,0.00,WUHU21623XXSP,2013-03-12 23:10:00,
2013-03-12 18:15:00,65.1,39.5,30.10,North,0,0.0,0.0,39,0.00,,,0.00,WUHU21623XXSP,2013-03-12 23:15:00,
2013-03-12 18:20:00,65.1,40.2,30.10,North,0,0.0,0.0,40,0.00,,,0.00,WUHU21623XXSP,2013-03-12 23:20:00,
2013-03-12 18:25:00,64.6,39.9,30.10,North,0,0.0,0.0,40,0.00,,,0.00,WUHU21623XXSP,2013-03-12 23:25:00,
2013-03-12 18:30:00,64.4,39.6,30.10,North,0,0.0,0.0,40,0.00,,,0.00,WUHU21623XXSP,2013-03-12 23:30:00,
2013-03-12 18:35:00,64.0,39.2,30.10,North,0,0.0,0.0,40,0.00,,,0.00,WUHU21623XXSP,2013-03-12 23:35:00,
2013-03-12 18:40:00,63.3,39.2,30.11,North,0,0.0,0.0,41,0.00,,,0.00,WUHU21623XXSP,2013-03-12 23:40:00,
2013-03-12 18:45:00,63.0,38.8,30.11,North,0,0.0,0.0,41,0.00,,,0.00,WUHU21623XXSP,2013-03-12 23:45:00,
2013-03-12 18:50:00,62.4,38.9,30.11,North,0,0.0,0.0,42,0.00,,,0.00,WUHU21623XXSP,2013-03-12 23:50:00,
2013-03-12 18:55:00,61.9,39.0,30.12,North,0,0.0,0.0,43,0.00,,,0.00,WUHU21623XXSP,2013-03-12 23:55:00,
2013-03-12 19:00:00,61.5,38.7,30.12,North,0,0.0,0.0,43,0.00,,,0.00,WUHU21623XXSP,2013-03-13 00:00:00,
2013-03-12 19:05:00,61.2,38.9,30.12,North,0,0.0,0.0,44,0.00,,,0.00,WUHU21623XXSP,2013-03-13 00:05:00,
2013-03-12 19:10:00,60.6,38.5,30.12,North,0,0.0,0.0,44,0.00,,,0.00,WUHU21623XXSP,2013-03-13 00:10:00,
2013-03-12 19:15:00,60.4,38.9,30.12,North,0,0.0,0.0,45,0.00,,,0.00,WUHU21623XXSP,2013-03-13 00:15:00,
2013-03-12 19:20:00,59.9,38.4,30.13,North,0,0.0,0.0,45,0.00,,,0.00,WUHU21623XXSP,2013-03-13 00:20:00,
2013-03-12 19:25:00,59.5,38.6,30.13,North,0,0.0,0.0,46,0.00,,,0.00,WUHU21623XXSP,2013-03-13 00:25:00,
2013-03-12 19:30:00,59.2,38.9,30.13,North,0,0.0,0.0,47,0.00,,,0.00,WUHU21623XXSP,2013-03-13 00:30:00,
2013-03-12 19:35:00,58.8,38.6,30.13,North,0,0.0,0.0,47,0.00,,,0.00,WUHU21623XXSP,2013-03-13 00:35:00,
2013-03-12 19:40:00,58.1,38.5,30.13,North,0,0.0,0.0,48,0.00,,,0.00,WUHU21623XXSP,2013-03-13 00:40:00,
2013-03-12 19:45:00,57.9,38.3,30.13,North,0,0.0,0.0,48,0.00,,,0.00,WUHU21623XXSP,2013-03-13 00:45:00,
2013-03-12 19:50:00,57.6,38.6,30.14,North,0,0.0,0.0,49,0.00,,,0.00,WUHU21623XXSP,2013-03-13 00:50:00,
2013-03-12 19:55:00,57.0,38.1,30.14,North,0,0.0,0.0,49,0.00,,,0.00,WUHU21623XXSP,2013-03-13 00:55:00,
2013-03-12 20:00:00,56.8,37.9,30.15,North,0,0.0,0.0,49,0.00,,,0.00,WUHU21623XXSP,2013-03-13 01:00:00,
2013-03-12 20:05:00,56.5,38.1,30.14,North,0,0.0,0.0,50,0.00,,,0.00,WUHU21623XXSP,2013-03-13 01:05:00,
2013-03-12 20:10:00,55.9,38.0,30.15,North,0,0.0,0.0,51,0.00,,,0.00,WUHU21623XXSP,2013-03-13 01:10:00,
2013-03-12 20:15:00,55.4,37.5,30.15,North,0,0.0,0.0,51,0.00,,,0.00,WUHU21623XXSP,2013-03-13 01:15:00,
2013-03-12 20:20:00,55.0,37.7,30.16,North,0,0.0,0.0,52,0.00,,,0.00,WUHU21623XXSP,2013-03-13 01:20:00,
2013-03-12 20:25:00,54.3,37.9,30.16,North,0,0.0,0.0,54,0.00,,,0.00,WUHU21623XXSP,2013-03-13 01:25:00,
2013-03-12 20:30:00,53.8,37.5,30.16,North,0,0.0,0.0,54,0.00,,,0.00,WUHU21623XXSP,2013-03-13 01:30:00,
2013-03-12 20:35:00,53.4,37.6,30.16,North,0,0.0,0.0,55,0.00,,,0.00,WUHU21623XXSP,2013-03-13 01:35:00,
2013-03-12 20:40:00,52.9,37.5,30.16,North,0,0.0,0.0,56,0.00,,,0.00,WUHU21623XXSP,2013-03-13 01:40:00,
2013-03-12 20:45:00,52.5,37.6,30.16,North,0,0.0,0.0,57,0.00,,,0.00,WUHU21623XXSP,2013-03-13 01:45:00,
2013-03-12 20:50:00,52.0,37.3,30.17,North,0,0.0,0.0,57,0.00,,,0.00,WUHU21623XXSP,2013-03-13 01:50:00,
2013-03-12 20:55:00,51.4,37.1,30.16,North,0,0.0,0.0,58,0.00,,,0.00,WUHU21623XXSP,2013-03-13 01:55:00,
2013-03-12 21:00:00,50.9,37.0,30.16,North,0,0.0,0.0,59,0.00,,,0.00,WUHU21623XXSP,2013-03-13 02:00:00,
2013-03-12 21:05:00,50.7,37.3,30.16,North,0,0.0,0.0,60,0.00,,,0.00,WUHU21623XXSP,2013-03-13 02:05:00,
2013-03-12 21:10:00,50.2,36.8,30.16,North,0,0.0,0.0,60,0.00,,,0.00,WUHU21623XXSP,2013-03-13 02:10:00,
2013-03-12 21:15:00,49.8,36.9,30.17,North,0,0.0,0.0,61,0.00,,,0.00,WUHU21623XXSP,2013-03-13 02:15:00,
2013-03-12 21:20:00,49.6,37.1,30.17,North,0,0.0,0.0,62,0.00,,,0.00,WUHU21623XXSP,2013-03-13 02:20:00,
2013-03-12 21:25:00,49.1,37.0,30.17,North,0,0.0,0.0,63,0.00,,,0.00,WUHU21623XXSP,2013-03-13 02:25:00,
2013-03-12 21:30:00,48.7,37.1,30.18,North,0,0.0,0.0,64,0.00,,,0.00,WUHU21623XXSP,2013-03-13 02:30:00,
2013-03-12 21:35:00,48.6,36.9,30.18,North,0,0.0,0.0,64,0.00,,,0.00,WUHU21623XXSP,2013-03-13 02:35:00,
2013-03-12 21:40:00,48.0,36.8,30.17,North,0,0.0,0.0,65,0.00,,,0.00,WUHU21623XXSP,2013-03-13 02:40:00,
2013-03-12 21:45:00,48.0,36.8,30.18,North,0,0.0,0.0,65,0.00,,,0.00,WUHU21623XXSP,2013-03-13 02:45:00,
2013-03-12 21:50:00,47.8,37.0,30.18,North,0,0.0,0.0,66,0.00,,,0.00,WUHU21623XXSP,2013-03-13 02:50:00,
2013-03-12 21:55:00,47.3,36.6,30.18,North,0,0.0,0.0,66,0.00,,,0.00,WUHU21623XXSP,2013-03-13 02:55:00,
2013-03-12 22:00:00,47.1,36.3,30.18,North,0,0.0,0.0,66,0.00,,,0.00,WUHU21623XXSP,2013-03-13 03:00:00,
2013-03-12 22:05:00,47.1,36.7,30.18,North,0,0.0,0.0,67,0.00,,,0.00,WUHU21623XXSP,2013-03-13 03:05:00,
2013-03-12 22:10:00,46.9,36.5,30.18,North,0,0.0,0.0,67,0.00,,,0.00,WUHU21623XXSP,2013-03-13 03:10:00,
2013-03-12 22:15:00,46.8,36.8,30.19,North,0,0.0,0.0,68,0.00,,,0.00,WUHU21623XXSP,2013-03-13 03:15:00,
2013-03-12 22:20:00,46.6,37.0,30.19,North,0,0.0,0.0,69,0.00,,,0.00,WUHU21623XXSP,2013-03-13 03:20:00,
2013-03-12 22:25:00,46.2,36.6,30.19,North,0,0.0,0.0,69,0.00,,,0.00,WUHU21623XXSP,2013-03-13 03:25:00,
2013-03-12 22:30:00,46.2,36.6,30.19,North,0,0.0,0.0,69,0.00,,,0.00,WUHU21623XXSP,2013-03-13 03:30:00,
2013-03-12 22:35:00,46.0,36.5,30.19,North,0,0.0,0.0,69,0.00,,,0.00,WUHU21623XXSP,2013-03-13 03:35:00,
2013-03-12 22:40:00,45.9,36.3,30.19,North,0,0.0,0.0,69,0.00,,,0.00,WUHU21623XXSP,2013-03-13 03:40:00,
2013-03-12 22:45:00,45.7,36.1,30.19,North,0,0.0,0.0,69,0.00,,,0.00,WUHU21623XXSP,2013-03-13 03:45:00,
2013-03-12 22:50:00,45.7,36.5,30.20,North,0,0.0,0.0,70,0.00,,,0.00,WUHU21623XXSP,2013-03-13 03:50:00,
2013-03-12 22:55:00,45.5,36.3,30.20,North,0,0.0,0.0,70,0.00,,,0.00,WUHU21623XXSP,2013-03-13 03:55:00,
2013-03-12 23:00:00,45.3,36.1,30.20,North,0,0.0,0.0,70,0.00,,,0.00,WUHU21623XXSP,2013-03-13 04:00:00,
2013-03-12 23:05:00,45.3,36.1,30.20,North,0,0.0,0.0,70,0.00,,,0.00,WUHU21623XXSP,2013-03-13 04:05:00,
2013-03-12 23:10:00,45.1,36.3,30.20,North,0,0.0,0.0,71,0.00,,,0.00,WUHU21623XXSP,2013-03-13 04:10:00,
2013-03-12 23:15:00,45.1,36.3,30.20,North,0,0.0,0.0,71,0.00,,,0.00,WUHU21623XXSP,2013-03-13 04:15:00,
2013-03-12 23:20:00,45.1,36.3,30.20,North,0,0.0,0.0,71,0.00,,,0.00,WUHU21623XXSP,2013-03-13 04:20:00,
2013-03-12 23:25:00,44.8,35.9,30.20,North,0,0.0,0.0,71,0.00,,,0.00,WUHU21623XXSP,2013-03-13 04:25:00,
2013-03-12 23:30:00,44.8,35.9,30.20,North,0,0.0,0.0,71,0.00,,,0.00,WUHU21623XXSP,2013-03-13 04:30:00,
2013-03-12 23:35:00,44.6,36.1,30.20,North,0,0.0,0.0,72,0.00,,,0.00,WUHU21623XXSP,2013-03-13 04:35:00,
2013-03-12 23:40:00,44.4,36.3,30.20,North,0,0.0,0.0,73,0.00,,,0.00,WUHU21623XXSP,2013-03-13 04:40:00,
2013-03-12 23:45:00,44.4,36.3,30.20,North,0,0.0,0.0,73,0.00,,,0.00,WUHU21623XXSP,2013-03-13 04:45:00,
2013-03-12 23:50:00,44.2,36.3,30.20,North,0,0.0,0.0,73,0.00,,,0.00,WUHU21623XXSP,2013-03-13 04:50:00,
2013-03-12 23:55:00,44.2,36.1,30.20,North,0,0.0,0.0,73,0.00,,,0.00,WUHU21623XXSP,2013-03-13 04:55:00,